Time;durP1;ratioP1;P1;durP2;ratioP2;P2;SDS_P1;SDS_P2;PMS_P1;PMS_P2;Temp;Humidity;BMP_temperature;BMP_pressure;BME280_temperature;BME280_humidity;BME280_pressure;Samples;Min_cycle;Max_cycle;Signal;HPM_P1;HPM_P2
2024/03/30 00:00:51;;;;;;;238.73;72.38;;;;;;;;;;4976168;28;20190;-47
2024/03/30 00:03:18;;;;;;;233.15;68.38;;;;;;;;;;4975785;28;20211;-47
2024/03/30 00:05:44;;;;;;;235.30;70.13;;;;;;;;;;4975553;28;20189;-48
2024/03/30 00:08:10;;;;;;;233.80;67.82;;;;;;;;;;4975512;28;20220;-48
2024/03/30 00:10:37;;;;;;;234.40;67.30;;;;;;;;;;4976411;28;20195;-48
2024/03/30 00:13:04;;;;;;;234.65;70.25;;;;;;;;;;4968283;28;20239;-47
2024/03/30 00:15:31;;;;;;;237.30;72.07;;;;;;;;;;4974134;28;20306;-48
2024/03/30 00:17:57;;;;;;;231.68;66.03;;;;;;;;;;4975386;28;20179;-48
2024/03/30 00:20:23;;;;;;;232.38;66.90;;;;;;;;;;4975262;28;20205;-48
2024/03/30 00:22:52;;;;;;;235.45;68.13;;;;;;;;;;4975653;28;20175;-47
2024/03/30 00:25:19;;;;;;;233.07;67.50;;;;;;;;;;4975454;28;20187;-47
2024/03/30 00:27:45;;;;;;;233.75;68.03;;;;;;;;;;4975552;28;20194;-48
2024/03/30 00:30:11;;;;;;;235.68;71.38;;;;;;;;;;4975128;28;20196;-48
2024/03/30 00:32:37;;;;;;;234.40;69.20;;;;;;;;;;4975645;28;20179;-47
2024/03/30 00:35:04;;;;;;;234.10;68.43;;;;;;;;;;4974748;28;20206;-47
2024/03/30 00:37:30;;;;;;;232.60;66.70;;;;;;;;;;4974914;28;20186;-47
2024/03/30 00:39:56;;;;;;;234.60;68.97;;;;;;;;;;4975578;28;20237;-47
2024/03/30 00:42:22;;;;;;;236.50;74.57;;;;;;;;;;4974624;28;20188;-47
2024/03/30 00:44:48;;;;;;;235.33;69.70;;;;;;;;;;4975593;28;20437;-47
2024/03/30 00:47:14;;;;;;;233.57;69.30;;;;;;;;;;4974174;28;20423;-47
2024/03/30 00:49:40;;;;;;;236.97;71.47;;;;;;;;;;4975285;28;20422;-46
2024/03/30 00:52:07;;;;;;;233.47;67.40;;;;;;;;;;4974730;28;20485;-47
2024/03/30 00:57:41;;;;;;;232.27;67.00;;;;;;;;;;4972959;28;20248;-47
2024/03/30 01:00:08;;;;;;;231.25;65.63;;;;;;;;;;4974309;28;20185;-48
2024/03/30 01:02:34;;;;;;;235.65;70.90;;;;;;;;;;4974868;28;20171;-48
2024/03/30 01:05:00;;;;;;;235.33;69.67;;;;;;;;;;4974359;28;20213;-47
2024/03/30 01:07:26;;;;;;;234.30;69.40;;;;;;;;;;4974021;28;20422;-47
2024/03/30 01:09:52;;;;;;;233.97;69.37;;;;;;;;;;4974955;28;20430;-48
2024/03/30 01:12:18;;;;;;;232.43;67.77;;;;;;;;;;4974345;28;20454;-47
2024/03/30 01:14:44;;;;;;;236.20;69.40;;;;;;;;;;4975711;28;20465;-47
2024/03/30 01:17:10;;;;;;;234.38;68.15;;;;;;;;;;4991681;28;20230;-47
2024/03/30 01:19:36;;;;;;;236.45;72.25;;;;;;;;;;4992086;28;20662;-47
2024/03/30 01:22:02;;;;;;;234.65;69.32;;;;;;;;;;4992557;28;20185;-47
2024/03/30 01:24:28;;;;;;;236.65;73.00;;;;;;;;;;4991731;28;20590;-47
2024/03/30 01:26:56;;;;;;;235.52;70.30;;;;;;;;;;4990562;28;20181;-47
2024/03/30 01:29:24;;;;;;;234.45;68.10;;;;;;;;;;4991317;28;20182;-47
2024/03/30 01:31:51;;;;;;;234.95;69.35;;;;;;;;;;4991134;28;20537;-47
2024/03/30 01:34:17;;;;;;;231.70;67.05;;;;;;;;;;4991374;28;20267;-47
2024/03/30 01:36:43;;;;;;;236.15;70.72;;;;;;;;;;4990817;28;20180;-48
2024/03/30 01:39:09;;;;;;;232.57;67.17;;;;;;;;;;4991270;28;20539;-47
2024/03/30 01:41:38;;;;;;;235.50;71.20;;;;;;;;;;4991049;28;20669;-48
2024/03/30 01:44:04;;;;;;;233.52;70.90;;;;;;;;;;4990949;28;20441;-47
2024/03/30 01:46:31;;;;;;;235.55;70.43;;;;;;;;;;4990704;28;20187;-47
2024/03/30 01:48:57;;;;;;;235.25;70.38;;;;;;;;;;4990888;28;20203;-47
2024/03/30 01:51:24;;;;;;;237.20;72.93;;;;;;;;;;4988838;28;20251;-47
2024/03/30 01:53:50;;;;;;;234.13;66.72;;;;;;;;;;4982714;28;20969;-48
2024/03/30 01:56:18;;;;;;;231.10;64.80;;;;;;;;;;4990706;28;20238;-47
2024/03/30 01:58:47;;;;;;;236.98;70.85;;;;;;;;;;4990980;28;20196;-48
2024/03/30 02:01:13;;;;;;;237.00;71.53;;;;;;;;;;4990810;28;20445;-47
2024/03/30 02:03:39;;;;;;;234.17;70.80;;;;;;;;;;4989669;28;20212;-47
2024/03/30 02:06:05;;;;;;;236.13;71.07;;;;;;;;;;4985782;28;20417;-47
2024/03/30 02:08:32;;;;;;;232.85;67.05;;;;;;;;;;4986471;28;20430;-47
2024/03/30 02:10:58;;;;;;;234.82;70.82;;;;;;;;;;4990857;28;20177;-47
2024/03/30 02:13:24;;;;;;;231.52;65.68;;;;;;;;;;4990642;28;20192;-48
2024/03/30 02:15:50;;;;;;;235.25;69.72;;;;;;;;;;4990221;28;20653;-47
2024/03/30 02:18:16;;;;;;;232.47;65.70;;;;;;;;;;4990412;28;20178;-47
2024/03/30 02:20:42;;;;;;;232.33;66.43;;;;;;;;;;4990648;28;20437;-48
2024/03/30 02:23:13;;;;;;;232.87;66.23;;;;;;;;;;4953812;28;1070240;-47
2024/03/30 02:25:40;;;;;;;237.25;72.15;;;;;;;;;;4991038;28;20196;-47
2024/03/30 02:28:06;;;;;;;234.98;70.80;;;;;;;;;;4991382;28;20177;-47
2024/03/30 02:30:32;;;;;;;230.37;65.70;;;;;;;;;;4991793;28;20190;-46
2024/03/30 02:32:58;;;;;;;231.57;64.85;;;;;;;;;;4991345;28;20416;-45
2024/03/30 02:35:24;;;;;;;232.17;65.20;;;;;;;;;;4991154;28;20252;-45
2024/03/30 02:37:53;;;;;;;232.18;67.65;;;;;;;;;;4991358;28;20987;-45
2024/03/30 02:40:20;;;;;;;230.07;64.93;;;;;;;;;;4995529;28;20236;-46
2024/03/30 02:42:46;;;;;;;230.50;65.97;;;;;;;;;;4995163;28;20239;-47
2024/03/30 02:45:13;;;;;;;231.93;65.53;;;;;;;;;;4994704;28;20225;-45
2024/03/30 02:47:39;;;;;;;232.23;66.10;;;;;;;;;;4994926;28;20235;-46
2024/03/30 02:50:06;;;;;;;235.52;69.97;;;;;;;;;;4992556;28;20210;-46
2024/03/30 02:52:31;;;;;;;233.90;70.38;;;;;;;;;;4995056;28;20235;-46
2024/03/30 02:54:57;;;;;;;234.50;69.47;;;;;;;;;;4994361;28;20220;-46
2024/03/30 02:57:23;;;;;;;231.57;64.60;;;;;;;;;;4993432;28;20415;-46
2024/03/30 02:59:50;;;;;;;232.97;67.70;;;;;;;;;;4994614;28;20892;-46
2024/03/30 03:02:15;;;;;;;233.88;69.43;;;;;;;;;;4995019;28;20412;-45
2024/03/30 03:04:41;;;;;;;233.83;68.03;;;;;;;;;;4994648;28;20201;-46
2024/03/30 03:07:08;;;;;;;233.23;66.60;;;;;;;;;;4993167;28;20512;-46
2024/03/30 03:09:34;;;;;;;232.88;68.57;;;;;;;;;;4994577;28;20474;-45
2024/03/30 03:12:00;;;;;;;229.82;63.75;;;;;;;;;;4994629;28;20181;-46
2024/03/30 03:14:26;;;;;;;232.30;67.05;;;;;;;;;;4994339;28;20291;-46
2024/03/30 03:16:52;;;;;;;231.00;65.90;;;;;;;;;;4994397;28;20330;-46
2024/03/30 03:19:18;;;;;;;231.67;66.00;;;;;;;;;;4994624;28;20412;-46
2024/03/30 03:21:44;;;;;;;229.87;65.20;;;;;;;;;;4994489;28;20417;-45
2024/03/30 03:24:10;;;;;;;229.03;62.97;;;;;;;;;;4994388;28;20461;-46
2024/03/30 03:26:36;;;;;;;233.07;67.20;;;;;;;;;;4994025;28;20447;-46
2024/03/30 03:29:01;;;;;;;235.13;70.10;;;;;;;;;;4994154;28;20420;-46
2024/03/30 03:31:28;;;;;;;233.10;68.47;;;;;;;;;;4994326;28;20424;-45
2024/03/30 03:33:54;;;;;;;230.75;65.72;;;;;;;;;;4993870;28;20475;-46
2024/03/30 03:36:20;;;;;;;236.10;72.00;;;;;;;;;;4993919;28;20201;-47
2024/03/30 03:38:46;;;;;;;232.30;66.27;;;;;;;;;;4994157;28;20801;-46
2024/03/30 03:41:12;;;;;;;231.07;65.23;;;;;;;;;;4994054;28;20470;-47
2024/03/30 03:43:40;;;;;;;232.53;67.63;;;;;;;;;;4992541;28;20455;-45
2024/03/30 03:46:06;;;;;;;233.88;68.50;;;;;;;;;;4993980;28;20408;-46
2024/03/30 03:48:32;;;;;;;232.98;70.20;;;;;;;;;;4993887;28;20181;-45
2024/03/30 03:50:58;;;;;;;234.88;69.50;;;;;;;;;;4990134;28;20559;-45
2024/03/30 03:53:24;;;;;;;231.07;66.97;;;;;;;;;;4993792;28;20204;-46
2024/03/30 03:55:50;;;;;;;234.27;70.93;;;;;;;;;;4993469;28;20982;-46
2024/03/30 03:58:16;;;;;;;236.63;72.60;;;;;;;;;;4993628;28;20822;-45
2024/03/30 04:00:42;;;;;;;233.00;67.53;;;;;;;;;;4993656;28;20419;-45
2024/03/30 04:03:09;;;;;;;233.17;67.77;;;;;;;;;;4993733;28;20429;-46
2024/03/30 04:05:35;;;;;;;231.65;66.95;;;;;;;;;;4993538;28;20417;-46
2024/03/30 04:08:01;;;;;;;232.35;66.45;;;;;;;;;;4993678;28;20189;-45
2024/03/30 04:10:27;;;;;;;230.93;66.37;;;;;;;;;;4993563;28;20242;-46
2024/03/30 04:12:53;;;;;;;235.05;68.13;;;;;;;;;;4993673;28;20775;-45
2024/03/30 04:15:19;;;;;;;232.82;67.45;;;;;;;;;;4993269;28;20212;-45
2024/03/30 04:17:46;;;;;;;233.13;67.75;;;;;;;;;;4993574;28;20472;-46
2024/03/30 04:20:12;;;;;;;235.07;70.75;;;;;;;;;;4993371;28;20169;-46
2024/03/30 04:22:38;;;;;;;231.90;65.63;;;;;;;;;;4993213;28;20575;-45
2024/03/30 04:25:04;;;;;;;232.90;68.53;;;;;;;;;;4992918;28;20274;-45
2024/03/30 04:27:30;;;;;;;232.52;68.10;;;;;;;;;;4993284;28;20424;-46
2024/03/30 04:29:57;;;;;;;232.63;68.73;;;;;;;;;;4993359;28;20235;-45
2024/03/30 04:32:23;;;;;;;233.32;69.05;;;;;;;;;;4993102;28;20413;-45
2024/03/30 04:34:49;;;;;;;234.77;69.95;;;;;;;;;;4992887;28;20237;-46
2024/03/30 04:37:15;;;;;;;230.90;65.37;;;;;;;;;;4992743;28;20231;-47
2024/03/30 04:39:41;;;;;;;230.50;65.47;;;;;;;;;;4992855;28;20412;-47
2024/03/30 04:42:09;;;;;;;231.82;66.43;;;;;;;;;;4991790;28;20707;-45
2024/03/30 04:44:35;;;;;;;232.80;67.10;;;;;;;;;;4992791;28;20190;-46
2024/03/30 04:47:01;;;;;;;232.90;68.10;;;;;;;;;;4992774;28;20568;-46
2024/03/30 04:49:27;;;;;;;235.40;70.50;;;;;;;;;;4991131;28;20511;-46
2024/03/30 04:51:53;;;;;;;233.68;68.78;;;;;;;;;;4991069;28;20523;-46
2024/03/30 04:54:19;;;;;;;235.00;70.87;;;;;;;;;;4992477;28;20719;-46
2024/03/30 04:56:46;;;;;;;235.37;68.77;;;;;;;;;;4992435;28;20408;-46
2024/03/30 04:59:12;;;;;;;230.48;65.15;;;;;;;;;;4992546;28;20415;-46
2024/03/30 05:01:40;;;;;;;233.20;68.87;;;;;;;;;;4991826;28;20177;-47
2024/03/30 05:04:06;;;;;;;234.00;69.13;;;;;;;;;;4992471;28;20467;-45
2024/03/30 05:06:32;;;;;;;231.40;68.27;;;;;;;;;;4979524;28;20201;-46
2024/03/30 05:08:58;;;;;;;231.53;65.43;;;;;;;;;;4974674;28;20409;-46
2024/03/30 05:11:24;;;;;;;233.50;69.67;;;;;;;;;;4974496;28;20413;-47
2024/03/30 05:13:50;;;;;;;235.77;71.28;;;;;;;;;;4974693;28;20509;-46
2024/03/30 05:16:16;;;;;;;230.60;67.57;;;;;;;;;;4975682;28;20177;-46
2024/03/30 05:18:42;;;;;;;232.13;67.27;;;;;;;;;;4974738;28;20829;-46
2024/03/30 05:21:07;;;;;;;231.63;66.23;;;;;;;;;;4974473;28;20764;-48
2024/03/30 05:23:34;;;;;;;235.13;71.47;;;;;;;;;;4973876;28;20477;-46
2024/03/30 05:26:02;;;;;;;231.95;69.80;;;;;;;;;;4972583;28;20417;-46
2024/03/30 05:28:28;;;;;;;229.02;64.70;;;;;;;;;;4973911;28;20233;-45
2024/03/30 05:30:55;;;;;;;228.15;63.80;;;;;;;;;;4974848;28;20181;-46
2024/03/30 05:33:22;;;;;;;229.32;64.78;;;;;;;;;;4973897;28;20208;-47
2024/03/30 05:35:48;;;;;;;235.05;70.75;;;;;;;;;;4974303;28;20201;-46
2024/03/30 05:38:15;;;;;;;233.95;69.65;;;;;;;;;;4973625;28;20554;-46
2024/03/30 05:40:41;;;;;;;232.75;69.57;;;;;;;;;;4974387;28;20188;-45
2024/03/30 05:43:07;;;;;;;229.88;64.30;;;;;;;;;;4972415;28;20247;-46
2024/03/30 05:45:34;;;;;;;234.55;72.45;;;;;;;;;;4973801;28;20235;-46
2024/03/30 05:48:00;;;;;;;230.10;65.13;;;;;;;;;;4973835;28;20185;-46
2024/03/30 05:50:27;;;;;;;232.80;67.97;;;;;;;;;;4973791;28;20182;-45
2024/03/30 05:52:53;;;;;;;230.52;66.43;;;;;;;;;;4974294;28;20567;-47
2024/03/30 05:55:19;;;;;;;235.70;72.32;;;;;;;;;;4973621;28;20453;-47
2024/03/30 05:57:47;;;;;;;233.95;70.18;;;;;;;;;;4974082;28;20254;-46
2024/03/30 06:03:16;;;;;;;230.55;67.25;;;;;;;;;;4973519;28;20559;-46
2024/03/30 06:05:42;;;;;;;236.77;74.17;;;;;;;;;;4973805;28;20185;-48
2024/03/30 06:08:08;;;;;;;230.53;66.07;;;;;;;;;;4972170;28;20421;-47
2024/03/30 06:10:34;;;;;;;235.60;70.87;;;;;;;;;;4973751;28;20421;-46
2024/03/30 06:13:01;;;;;;;232.57;67.67;;;;;;;;;;4972596;28;20417;-46
2024/03/30 06:15:27;;;;;;;238.30;75.18;;;;;;;;;;4972030;28;20457;-46
2024/03/30 06:17:53;;;;;;;236.07;73.27;;;;;;;;;;4973858;28;20786;-46
2024/03/30 06:20:19;;;;;;;234.37;69.97;;;;;;;;;;4973500;28;20492;-46
2024/03/30 06:22:45;;;;;;;234.90;70.35;;;;;;;;;;4981177;28;20405;-46
2024/03/30 06:25:11;;;;;;;239.93;77.00;;;;;;;;;;4991158;28;20197;-46
2024/03/30 06:27:37;;;;;;;233.77;68.53;;;;;;;;;;4991150;28;20185;-46
2024/03/30 06:30:03;;;;;;;236.33;71.57;;;;;;;;;;4991266;28;20905;-47
2024/03/30 06:32:29;;;;;;;233.63;68.97;;;;;;;;;;4990025;28;20851;-48
2024/03/30 06:34:55;;;;;;;233.83;68.70;;;;;;;;;;4990067;28;20251;-48
2024/03/30 06:37:21;;;;;;;232.20;68.07;;;;;;;;;;4991284;28;20405;-46
2024/03/30 06:45:16;;;;;;;238.20;73.13;;;;;;;;;;4990988;28;20255;-47
2024/03/30 06:47:42;;;;;;;236.37;70.90;;;;;;;;;;4991073;28;20207;-47
2024/03/30 06:50:08;;;;;;;234.13;69.50;;;;;;;;;;4988854;28;20905;-46
2024/03/30 06:52:34;;;;;;;234.50;70.47;;;;;;;;;;4990988;28;20928;-47
2024/03/30 06:55:00;;;;;;;234.40;67.97;;;;;;;;;;4990783;28;20262;-46
2024/03/30 06:57:26;;;;;;;242.33;78.53;;;;;;;;;;4991056;28;20450;-47
2024/03/30 06:59:52;;;;;;;236.33;71.17;;;;;;;;;;4991103;28;20442;-46
2024/03/30 07:02:19;;;;;;;236.40;71.80;;;;;;;;;;4991132;28;20460;-45
2024/03/30 07:04:45;;;;;;;237.50;70.60;;;;;;;;;;4990904;28;20680;-48
2024/03/30 07:07:11;;;;;;;233.83;68.97;;;;;;;;;;4991198;28;20187;-45
2024/03/30 07:09:37;;;;;;;231.27;66.10;;;;;;;;;;4990949;28;20419;-46
2024/03/30 07:12:03;;;;;;;238.03;72.70;;;;;;;;;;4990820;28;20428;-46
2024/03/30 07:14:29;;;;;;;235.43;69.50;;;;;;;;;;4990793;28;20515;-46
2024/03/30 07:16:55;;;;;;;236.17;72.40;;;;;;;;;;4990732;28;20587;-46
2024/03/30 07:19:21;;;;;;;235.20;71.30;;;;;;;;;;4991016;28;20530;-47
2024/03/30 07:21:47;;;;;;;238.50;74.18;;;;;;;;;;4990787;28;20188;-46
2024/03/30 07:24:13;;;;;;;234.20;69.00;;;;;;;;;;4991443;28;20707;-46
2024/03/30 07:26:39;;;;;;;237.93;73.93;;;;;;;;;;4993932;28;20910;-47
2024/03/30 07:29:05;;;;;;;234.57;70.03;;;;;;;;;;4994479;28;20404;-46
2024/03/30 07:31:31;;;;;;;234.25;68.78;;;;;;;;;;4994145;28;20418;-47
2024/03/30 07:33:57;;;;;;;241.15;73.43;;;;;;;;;;4992758;28;20287;-47
2024/03/30 07:36:23;;;;;;;235.57;72.30;;;;;;;;;;4989646;28;20226;-46
2024/03/30 07:38:49;;;;;;;239.90;74.57;;;;;;;;;;4994120;28;20410;-46
2024/03/30 07:41:16;;;;;;;235.37;70.37;;;;;;;;;;4993999;28;20418;-47
2024/03/30 07:43:42;;;;;;;240.30;76.32;;;;;;;;;;4993842;28;20430;-46
2024/03/30 07:46:07;;;;;;;234.40;68.80;;;;;;;;;;4993977;28;20184;-47
2024/03/30 07:48:33;;;;;;;237.70;74.03;;;;;;;;;;4992496;28;20947;-46
2024/03/30 07:51:01;;;;;;;236.27;70.17;;;;;;;;;;4983086;28;20837;-46
2024/03/30 07:53:27;;;;;;;236.77;72.15;;;;;;;;;;4975901;28;20487;-46
2024/03/30 07:55:53;;;;;;;237.53;71.77;;;;;;;;;;4975486;28;20218;-47
2024/03/30 07:58:18;;;;;;;237.47;72.60;;;;;;;;;;4982721;28;20432;-46
2024/03/30 08:00:44;;;;;;;239.47;75.80;;;;;;;;;;4975661;28;20420;-47
2024/03/30 08:03:10;;;;;;;237.53;71.17;;;;;;;;;;4975571;28;20452;-46
2024/03/30 08:05:38;;;;;;;236.37;71.27;;;;;;;;;;4975837;28;20430;-47
2024/03/30 08:08:04;;;;;;;236.60;69.77;;;;;;;;;;4970760;28;20451;-46
2024/03/30 08:10:30;;;;;;;233.93;67.40;;;;;;;;;;4978702;28;20430;-46
2024/03/30 08:12:56;;;;;;;235.97;70.03;;;;;;;;;;4974650;28;20420;-47
2024/03/30 08:15:22;;;;;;;236.37;69.80;;;;;;;;;;4974953;28;20493;-46
2024/03/30 08:17:48;;;;;;;239.97;75.97;;;;;;;;;;4975778;28;20416;-46
2024/03/30 08:20:14;;;;;;;236.87;70.97;;;;;;;;;;4975456;28;20420;-46
2024/03/30 08:22:41;;;;;;;240.10;73.10;;;;;;;;;;4975731;28;20465;-46
2024/03/30 08:25:07;;;;;;;240.35;74.45;;;;;;;;;;4973557;28;20569;-46
2024/03/30 08:27:33;;;;;;;240.47;75.90;;;;;;;;;;4975230;28;20324;-46
2024/03/30 08:29:59;;;;;;;239.87;75.90;;;;;;;;;;4975868;28;20496;-46
2024/03/30 08:32:25;;;;;;;240.30;73.97;;;;;;;;;;4974454;28;20734;-46
2024/03/30 08:34:52;;;;;;;243.00;77.00;;;;;;;;;;4975368;28;20480;-46
2024/03/30 08:37:18;;;;;;;244.00;77.67;;;;;;;;;;4974045;28;20420;-49
2024/03/30 08:39:44;;;;;;;242.57;75.20;;;;;;;;;;4975541;28;20409;-47
2024/03/30 08:42:09;;;;;;;246.77;84.60;;;;;;;;;;4974790;28;20429;-46
2024/03/30 08:44:35;;;;;;;244.03;80.73;;;;;;;;;;4975293;28;20448;-47
2024/03/30 08:47:02;;;;;;;250.07;84.57;;;;;;;;;;4973421;28;20420;-47
2024/03/30 08:49:27;;;;;;;246.73;81.67;;;;;;;;;;4979490;28;20500;-47
2024/03/30 08:51:53;;;;;;;248.77;84.10;;;;;;;;;;4992043;28;20491;-46
2024/03/30 08:54:19;;;;;;;250.30;88.00;;;;;;;;;;4992287;28;20495;-48
2024/03/30 08:56:45;;;;;;;255.50;92.03;;;;;;;;;;4992268;28;20413;-48
2024/03/30 08:59:11;;;;;;;250.97;88.23;;;;;;;;;;4992665;28;20422;-46
2024/03/30 09:01:37;;;;;;;260.30;101.43;;;;;;;;;;4992621;28;20412;-48
2024/03/30 09:04:03;;;;;;;257.23;99.87;;;;;;;;;;4992666;28;20464;-48
2024/03/30 09:06:29;;;;;;;255.87;95.87;;;;;;;;;;4992285;28;20785;-47
2024/03/30 09:08:55;;;;;;;255.90;97.53;;;;;;;;;;4992315;28;20416;-48
2024/03/30 09:11:21;;;;;;;253.13;93.70;;;;;;;;;;4992332;28;20499;-49
2024/03/30 09:13:47;;;;;;;254.83;97.50;;;;;;;;;;4992194;28;20737;-47
2024/03/30 09:16:13;;;;;;;255.07;99.53;;;;;;;;;;4992456;28;20954;-47
2024/03/30 09:18:39;;;;;;;253.40;98.23;;;;;;;;;;4992146;28;20409;-46
2024/03/30 09:21:05;;;;;;;255.30;99.83;;;;;;;;;;4992597;28;20769;-48
2024/03/30 09:23:31;;;;;;;257.97;101.50;;;;;;;;;;4992073;28;20812;-47
2024/03/30 09:25:57;;;;;;;255.43;102.03;;;;;;;;;;4992102;28;20412;-47
2024/03/30 09:28:23;;;;;;;250.20;94.00;;;;;;;;;;4992257;28;20426;-48
2024/03/30 09:30:49;;;;;;;257.27;104.20;;;;;;;;;;4992091;28;20408;-48
2024/03/30 09:33:16;;;;;;;254.90;98.80;;;;;;;;;;4992513;28;20441;-49
2024/03/30 09:35:42;;;;;;;259.60;101.80;;;;;;;;;;4991242;28;20954;-47
2024/03/30 09:38:08;;;;;;;259.47;107.93;;;;;;;;;;4973682;28;20421;-46
2024/03/30 09:40:34;;;;;;;253.77;100.77;;;;;;;;;;4974028;28;20753;-46
2024/03/30 09:43:00;;;;;;;254.10;96.60;;;;;;;;;;4978240;28;20905;-46
2024/03/30 09:45:29;;;;;;;252.17;93.53;;;;;;;;;;4980313;28;20412;-47
2024/03/30 09:48:00;;;;;;;260.87;107.13;;;;;;;;;;4991632;28;20416;-48
2024/03/30 09:50:27;;;;;;;253.03;94.33;;;;;;;;;;4977921;28;20808;-46
2024/03/30 09:52:53;;;;;;;251.90;93.53;;;;;;;;;;4976535;28;20412;-46
2024/03/30 09:55:19;;;;;;;253.47;94.20;;;;;;;;;;4991329;28;20466;-46
2024/03/30 09:57:48;;;;;;;254.00;96.93;;;;;;;;;;4991499;28;20491;-47
2024/03/30 10:00:14;;;;;;;253.33;97.63;;;;;;;;;;4990698;28;20414;-46
2024/03/30 10:02:40;;;;;;;258.00;102.80;;;;;;;;;;4973946;28;20409;-49
2024/03/30 10:05:10;;;;;;;255.23;98.37;;;;;;;;;;4984627;28;21018;-45
2024/03/30 10:07:37;;;;;;;253.20;91.77;;;;;;;;;;4991397;28;20417;-45
2024/03/30 10:10:11;;;;;;;252.83;95.90;;;;;;;;;;4991690;28;20862;-45
2024/03/30 10:12:43;;;;;;;257.77;102.97;;;;;;;;;;4991506;28;20716;-47
2024/03/30 10:15:13;;;;;;;254.03;94.80;;;;;;;;;;4991038;28;20613;-46
2024/03/30 10:17:39;;;;;;;248.80;90.33;;;;;;;;;;4991475;28;20502;-46
2024/03/30 10:20:06;;;;;;;253.67;98.13;;;;;;;;;;4991433;28;20499;-47
2024/03/30 10:22:32;;;;;;;251.77;94.73;;;;;;;;;;4991386;28;20785;-48
2024/03/30 10:24:58;;;;;;;254.00;97.57;;;;;;;;;;4991057;28;20452;-48
2024/03/30 10:27:24;;;;;;;251.20;94.00;;;;;;;;;;4991777;28;20922;-47
2024/03/30 10:29:50;;;;;;;251.00;93.83;;;;;;;;;;4991279;28;20416;-49
2024/03/30 10:32:15;;;;;;;249.73;92.73;;;;;;;;;;4991515;28;20920;-46
2024/03/30 10:34:41;;;;;;;254.73;102.30;;;;;;;;;;4990998;28;20467;-46
2024/03/30 10:37:08;;;;;;;255.00;101.60;;;;;;;;;;4991086;28;20440;-45
2024/03/30 10:39:34;;;;;;;254.50;100.43;;;;;;;;;;4991124;28;20423;-46
2024/03/30 10:42:00;;;;;;;255.47;99.27;;;;;;;;;;4991294;28;20411;-48
2024/03/30 10:44:27;;;;;;;250.90;94.37;;;;;;;;;;4991572;28;20440;-47
2024/03/30 10:46:54;;;;;;;251.23;93.47;;;;;;;;;;4990759;28;20474;-46
2024/03/30 10:49:20;;;;;;;250.50;94.20;;;;;;;;;;4990338;28;20416;-46
2024/03/30 10:51:46;;;;;;;257.23;105.17;;;;;;;;;;4989884;28;20810;-48
2024/03/30 10:54:19;;;;;;;250.47;95.33;;;;;;;;;;4991082;28;20464;-48
2024/03/30 10:56:47;;;;;;;254.03;98.77;;;;;;;;;;4990794;28;20426;-48
2024/03/30 10:59:14;;;;;;;252.63;98.37;;;;;;;;;;4991953;28;20427;-47
2024/03/30 11:01:40;;;;;;;255.90;101.77;;;;;;;;;;4994806;28;20411;-48
2024/03/30 11:04:07;;;;;;;255.33;101.20;;;;;;;;;;4994704;28;20440;-47
2024/03/30 11:06:33;;;;;;;249.87;91.83;;;;;;;;;;4994370;28;20446;-46
2024/03/30 11:08:59;;;;;;;256.67;101.10;;;;;;;;;;4994788;28;20429;-47
2024/03/30 11:11:25;;;;;;;254.70;97.53;;;;;;;;;;4995129;28;20468;-47
2024/03/30 11:13:52;;;;;;;248.73;92.60;;;;;;;;;;4994631;28;20904;-47
2024/03/30 11:16:18;;;;;;;252.73;95.27;;;;;;;;;;4994525;28;20502;-47
2024/03/30 11:19:05;;;;;;;255.57;99.20;;;;;;;;;;4994416;28;20496;-47
2024/03/30 11:21:34;;;;;;;249.23;92.17;;;;;;;;;;4994513;28;20407;-47
2024/03/30 11:24:03;;;;;;;248.17;88.97;;;;;;;;;;4994155;28;20969;-46
2024/03/30 11:26:32;;;;;;;250.20;93.00;;;;;;;;;;4994132;28;20407;-46
2024/03/30 11:29:04;;;;;;;249.73;89.73;;;;;;;;;;4994434;28;20419;-47
2024/03/30 11:31:40;;;;;;;251.30;94.93;;;;;;;;;;4994310;28;20411;-47
2024/03/30 11:34:14;;;;;;;250.10;92.10;;;;;;;;;;4994294;28;20855;-46
2024/03/30 11:36:58;;;;;;;251.83;94.33;;;;;;;;;;4986881;28;20426;-47
2024/03/30 11:39:27;;;;;;;247.07;88.47;;;;;;;;;;4972091;28;20872;-48
2024/03/30 11:41:56;;;;;;;248.43;90.03;;;;;;;;;;4986196;28;20411;-48
2024/03/30 11:44:24;;;;;;;251.30;94.63;;;;;;;;;;4976200;28;20467;-47
2024/03/30 11:46:50;;;;;;;252.23;93.37;;;;;;;;;;4985254;28;20417;-46
2024/03/30 11:49:18;;;;;;;250.30;90.83;;;;;;;;;;4986689;28;20412;-46
2024/03/30 11:51:44;;;;;;;251.40;95.13;;;;;;;;;;4977289;28;20416;-46
2024/03/30 11:54:23;;;;;;;249.07;91.53;;;;;;;;;;4994017;28;20895;-49
2024/03/30 11:57:05;;;;;;;249.13;91.23;;;;;;;;;;4993669;28;20853;-46
2024/03/30 11:59:40;;;;;;;250.50;94.73;;;;;;;;;;4993739;28;20917;-46
2024/03/30 12:02:07;;;;;;;249.80;88.27;;;;;;;;;;4993740;28;20422;-46
2024/03/30 12:04:34;;;;;;;254.67;98.97;;;;;;;;;;4993537;28;20795;-47
2024/03/30 12:07:00;;;;;;;247.57;89.07;;;;;;;;;;4993281;28;20436;-46
2024/03/30 12:09:28;;;;;;;247.57;90.93;;;;;;;;;;4993761;28;20409;-46
2024/03/30 12:12:06;;;;;;;248.20;90.20;;;;;;;;;;4993259;28;20430;-46
2024/03/30 12:14:37;;;;;;;250.53;94.03;;;;;;;;;;4993415;28;20479;-47
2024/03/30 12:17:03;;;;;;;253.83;99.33;;;;;;;;;;4975808;28;20417;-46
2024/03/30 12:19:30;;;;;;;248.70;88.67;;;;;;;;;;4982469;28;20414;-46
2024/03/30 12:21:56;;;;;;;249.20;91.27;;;;;;;;;;4993284;28;20788;-49
2024/03/30 12:24:23;;;;;;;244.30;83.27;;;;;;;;;;4993563;28;20469;-45
2024/03/30 12:26:50;;;;;;;248.07;89.07;;;;;;;;;;4992875;28;20417;-46
2024/03/30 12:29:16;;;;;;;247.70;89.23;;;;;;;;;;4993373;28;20792;-46
2024/03/30 12:31:42;;;;;;;247.87;86.47;;;;;;;;;;4993399;28;20466;-47
2024/03/30 12:34:09;;;;;;;245.57;87.17;;;;;;;;;;4993061;28;20490;-46
2024/03/30 12:36:35;;;;;;;251.70;94.27;;;;;;;;;;4992843;28;20505;-46
2024/03/30 12:39:01;;;;;;;248.53;90.23;;;;;;;;;;4993079;28;20423;-47
2024/03/30 12:41:30;;;;;;;245.73;84.73;;;;;;;;;;4993102;28;20422;-46
2024/03/30 12:43:59;;;;;;;249.17;93.03;;;;;;;;;;4993043;28;20479;-48
2024/03/30 12:46:25;;;;;;;246.13;86.03;;;;;;;;;;4992943;28;20413;-48
2024/03/30 12:48:51;;;;;;;247.57;87.43;;;;;;;;;;4992814;28;20508;-49
2024/03/30 12:51:17;;;;;;;247.93;89.47;;;;;;;;;;4990322;28;20670;-46
2024/03/30 12:53:43;;;;;;;252.37;95.13;;;;;;;;;;4992417;28;20435;-47
2024/03/30 12:56:09;;;;;;;248.37;88.40;;;;;;;;;;4992401;28;20457;-47
2024/03/30 12:58:35;;;;;;;248.07;89.10;;;;;;;;;;4992880;28;20412;-46
2024/03/30 13:01:03;;;;;;;248.20;88.67;;;;;;;;;;4992695;28;20416;-47
2024/03/30 13:03:29;;;;;;;248.37;88.07;;;;;;;;;;4992545;28;20433;-46
2024/03/30 13:05:55;;;;;;;249.77;88.87;;;;;;;;;;4992003;28;20754;-48
2024/03/30 13:08:21;;;;;;;249.20;93.93;;;;;;;;;;4992401;28;20415;-47
2024/03/30 13:10:47;;;;;;;252.93;92.87;;;;;;;;;;4990650;28;20468;-45
2024/03/30 13:13:13;;;;;;;250.80;93.30;;;;;;;;;;4973495;28;20481;-46
2024/03/30 13:15:39;;;;;;;253.20;98.00;;;;;;;;;;4987389;28;20477;-46
2024/03/30 13:18:06;;;;;;;248.50;93.20;;;;;;;;;;4992278;28;20808;-46
2024/03/30 13:20:32;;;;;;;245.57;87.37;;;;;;;;;;4992237;28;20508;-48
2024/03/30 13:23:01;;;;;;;249.97;90.40;;;;;;;;;;4991402;28;20493;-46
2024/03/30 13:25:27;;;;;;;247.10;87.90;;;;;;;;;;4990804;28;20902;-48
2024/03/30 13:27:53;;;;;;;249.60;92.47;;;;;;;;;;4991600;28;20419;-47
2024/03/30 13:30:21;;;;;;;253.30;97.07;;;;;;;;;;4992098;28;20414;-47
2024/03/30 13:32:47;;;;;;;249.93;91.67;;;;;;;;;;4991931;28;20815;-46
2024/03/30 13:35:13;;;;;;;251.67;94.30;;;;;;;;;;4991295;28;20462;-48
2024/03/30 13:37:45;;;;;;;250.87;92.13;;;;;;;;;;4980165;28;20426;-48
2024/03/30 13:40:12;;;;;;;251.13;94.07;;;;;;;;;;4973751;28;20498;-46
2024/03/30 13:42:38;;;;;;;249.37;89.97;;;;;;;;;;4982087;28;20420;-47
2024/03/30 13:45:04;;;;;;;245.20;84.10;;;;;;;;;;4981473;28;20438;-47
2024/03/30 13:47:30;;;;;;;246.47;86.57;;;;;;;;;;4973309;28;20418;-46
2024/03/30 13:49:56;;;;;;;250.17;90.67;;;;;;;;;;4988977;28;20420;-47
2024/03/30 13:52:22;;;;;;;248.17;89.20;;;;;;;;;;4987674;28;20903;-48
2024/03/30 13:54:48;;;;;;;248.73;90.13;;;;;;;;;;4977736;28;20822;-46
2024/03/30 13:57:14;;;;;;;248.73;91.67;;;;;;;;;;4983498;28;20458;-46
2024/03/30 13:59:41;;;;;;;248.70;93.40;;;;;;;;;;4974404;28;20921;-46
2024/03/30 14:02:07;;;;;;;247.37;86.77;;;;;;;;;;4991731;28;20411;-46
2024/03/30 14:04:34;;;;;;;245.43;87.87;;;;;;;;;;4991582;28;20881;-46
2024/03/30 14:07:00;;;;;;;247.43;90.40;;;;;;;;;;4991520;28;20792;-46
2024/03/30 14:09:26;;;;;;;247.77;87.90;;;;;;;;;;4991717;28;20419;-45
2024/03/30 14:11:51;;;;;;;245.33;85.87;;;;;;;;;;4991477;28;20461;-48